Rosedale, Washington
Current Conditions -  °F | °C
As of 1:00 PM on Saturday 20 Dec 2014 (Local Time) from KTIW Reporting Station
Moderate Rain Moderate Rain  
Wind Chill: 43°   Ceiling: 2100
Heat Index: 47°   Visibility: 3mi
Dew Point: 45°   Wind: 8mph
Humidity: 93%   Direction: 150°SSE
Pressure: 29.54"   Gusts: NA
Location:  47.2986°N, 122.616°W
Report Text: KTIW 202100Z 15007KT 3SM RA BR OVC021 08/07 A2954 RMK AO2 P0001 T00830072
Loading
Personal Weather Stations






























Interactive Weather Map New forecast layout! Learn more

10-Day Weather Forecast

Advertisements
Track Severe Weather on mobile